createdAt,value
2019-05-07T00:01:55.349Z,54.00
2019-05-07T00:04:27.043Z,54.50
2019-05-07T00:06:58.573Z,54.40
2019-05-07T00:09:32.137Z,54.70
2019-05-07T00:12:05.071Z,54.60
2019-05-07T00:14:35.955Z,54.60
2019-05-07T00:17:07.561Z,54.60
2019-05-07T00:19:38.714Z,54.80
2019-05-07T00:22:09.903Z,55.00
2019-05-07T00:24:42.586Z,54.80
2019-05-07T00:27:14.107Z,54.60
2019-05-07T00:29:45.384Z,54.50
2019-05-07T00:32:16.567Z,54.40
2019-05-07T00:34:54.294Z,54.30
2019-05-07T00:37:53.723Z,54.50
2019-05-07T00:40:52.863Z,54.40
2019-05-07T00:43:26.813Z,54.30
2019-05-07T00:46:05.656Z,53.90
2019-05-07T00:48:37.614Z,53.70
2019-05-07T00:51:42.747Z,53.80
2019-05-07T00:54:14.182Z,53.60
2019-05-07T00:56:45.384Z,53.40
2019-05-07T00:59:16.634Z,53.20
2019-05-07T01:01:47.852Z,53.10
2019-05-07T01:04:19.401Z,53.40
2019-05-07T01:06:50.559Z,53.20
2019-05-07T01:09:22.924Z,52.90
2019-05-07T01:11:54.611Z,52.80
2019-05-07T01:14:26.251Z,53.60
2019-05-07T01:16:58.127Z,53.10
2019-05-07T01:19:28.528Z,53.30
2019-05-07T01:21:59.497Z,53.30
2019-05-07T01:24:32.220Z,53.00
2019-05-07T01:27:03.879Z,53.10
2019-05-07T01:29:35.023Z,53.10
2019-05-07T01:32:17.105Z,53.00
2019-05-07T01:35:13.646Z,53.00
2019-05-07T01:37:45.447Z,53.10
2019-05-07T01:40:15.901Z,53.20
2019-05-07T01:42:46.883Z,53.30
2019-05-07T01:45:18.073Z,53.30
2019-05-07T01:47:49.559Z,53.60
2019-05-07T01:50:22.706Z,54.00
2019-05-07T01:52:53.702Z,54.40
2019-05-07T01:55:24.876Z,54.70
2019-05-07T01:57:56.045Z,54.80
2019-05-07T02:00:27.292Z,54.70
2019-05-07T02:03:05.523Z,54.70
2019-05-07T02:05:42.997Z,54.80
2019-05-07T02:08:22.142Z,54.70
2019-05-07T02:11:02.100Z,54.50
2019-05-07T02:13:33.863Z,54.50
2019-05-07T02:16:04.279Z,54.60
2019-05-07T02:18:35.412Z,54.70
2019-05-07T02:21:06.988Z,54.80
2019-05-07T02:23:38.153Z,55.00
2019-05-07T02:26:09.328Z,55.00
2019-05-07T02:28:42.644Z,54.70
2019-05-07T02:31:15.107Z,54.90
2019-05-07T02:33:46.487Z,55.00
2019-05-07T02:36:17.743Z,55.10
2019-05-07T02:38:59.587Z,55.00
2019-05-07T02:41:33.160Z,54.40
2019-05-07T02:44:04.619Z,54.10
2019-05-07T02:46:45.883Z,53.80
2019-05-07T02:49:23.738Z,53.60
2019-05-07T02:52:03.825Z,53.90
2019-05-07T02:54:53.854Z,54.00
2019-05-07T02:57:24.814Z,53.60
2019-05-07T02:59:55.980Z,53.90
2019-05-07T03:02:27.244Z,53.80
2019-05-07T03:04:58.415Z,54.00
2019-05-07T03:07:33.183Z,53.90
2019-05-07T03:10:03.840Z,53.80
2019-05-07T03:12:35.666Z,53.80
2019-05-07T03:15:07.063Z,53.60
2019-05-07T03:17:42.658Z,53.50
2019-05-07T03:20:16.536Z,53.50
2019-05-07T03:22:47.798Z,53.60
2019-05-07T03:25:26.628Z,54.00
2019-05-07T03:27:57.816Z,53.80
2019-05-07T03:30:47.734Z,53.70
2019-05-07T03:33:29.146Z,54.40
2019-05-07T03:36:06.367Z,54.10
2019-05-07T03:38:34.718Z,54.00
2019-05-07T03:41:06.186Z,53.90
2019-05-07T03:43:37.421Z,53.60
2019-05-07T03:46:14.168Z,53.40
2019-05-07T03:48:46.382Z,53.50
2019-05-07T03:51:17.606Z,53.60
2019-05-07T03:53:49.645Z,54.00
2019-05-07T03:56:23.406Z,54.10
2019-05-07T03:58:53.712Z,53.80
2019-05-07T04:01:24.969Z,53.30
2019-05-07T04:03:56.158Z,53.20
2019-05-07T04:06:27.345Z,53.20
2019-05-07T04:08:58.881Z,53.20
2019-05-07T04:11:30.118Z,53.30
2019-05-07T04:14:02.585Z,53.30
2019-05-07T04:16:36.148Z,53.00
2019-05-07T04:19:07.884Z,53.10
2019-05-07T04:21:38.039Z,53.20
2019-05-07T04:24:27.370Z,53.40
2019-05-07T04:27:05.660Z,53.20
2019-05-07T04:29:36.924Z,53.20
2019-05-07T04:32:08.944Z,53.10
2019-05-07T04:35:05.594Z,52.90
2019-05-07T04:37:36.753Z,52.90
2019-05-07T04:40:08.034Z,52.80
2019-05-07T04:42:39.195Z,52.50
2019-05-07T04:45:13.618Z,52.80
2019-05-07T04:47:47.793Z,52.60
2019-05-07T04:50:36.785Z,52.80
2019-05-07T04:52:54.079Z,52.60
2019-05-07T04:55:25.473Z,52.60
2019-05-07T04:57:56.636Z,52.60
2019-05-07T05:01:43.612Z,52.40
2019-05-07T05:04:25.705Z,52.80
2019-05-07T05:06:47.732Z,52.70
2019-05-07T05:09:18.929Z,52.70
2019-05-07T05:11:52.907Z,52.50
2019-05-07T05:14:23.094Z,52.40
2019-05-07T05:16:54.856Z,52.30
2019-05-07T05:19:25.398Z,52.20
2019-05-07T05:22:25.993Z,52.20
2019-05-07T05:25:15.883Z,52.40
2019-05-07T05:27:47.433Z,52.50
2019-05-07T05:30:25.481Z,52.30
2019-05-07T05:32:56.916Z,52.30
2019-05-07T05:35:28.084Z,52.40
2019-05-07T05:37:59.562Z,52.40
2019-05-07T05:40:32.013Z,52.30
2019-05-07T05:43:09.361Z,52.30
2019-05-07T05:45:43.515Z,52.30
2019-05-07T05:48:14.696Z,52.60
2019-05-07T05:50:53.676Z,52.30
2019-05-07T05:53:32.698Z,52.20
2019-05-07T05:56:08.217Z,52.50
2019-05-07T05:58:52.663Z,52.30
2019-05-07T06:01:52.211Z,52.40
2019-05-07T06:04:42.022Z,52.10
2019-05-07T06:07:28.222Z,51.80
2019-05-07T06:10:12.879Z,52.20
2019-05-07T06:13:12.460Z,51.90
2019-05-07T06:16:18.523Z,51.90
2019-05-07T06:19:12.951Z,51.80
2019-05-07T06:22:12.890Z,51.70
2019-05-07T06:24:49.132Z,50.60
2019-05-07T06:27:22.937Z,49.80
2019-05-07T06:29:54.529Z,49.60
2019-05-07T06:32:26.089Z,49.20
2019-05-07T06:34:57.371Z,49.40
2019-05-07T06:37:29.296Z,49.80
2019-05-07T06:40:20.390Z,50.10
2019-05-07T06:43:12.284Z,50.20
2019-05-07T06:45:45.386Z,49.60
2019-05-07T06:48:16.460Z,49.20
2019-05-07T06:51:00.110Z,49.80
2019-05-07T06:53:33.671Z,49.30
2019-05-07T06:56:05.386Z,49.50
2019-05-07T06:58:45.546Z,50.10
2019-05-07T07:01:54.075Z,50.00
2019-05-07T07:04:33.129Z,49.60
2019-05-07T07:07:33.864Z,51.20
2019-05-07T07:10:19.667Z,49.10
2019-05-07T07:12:52.865Z,48.30
2019-05-07T07:15:23.719Z,48.10
2019-05-07T07:17:54.884Z,48.80
2019-05-07T07:20:26.115Z,48.70
2019-05-07T07:22:57.291Z,48.20
2019-05-07T07:25:28.531Z,48.80
2019-05-07T07:27:59.706Z,48.00
2019-05-07T07:30:43.698Z,48.10
2019-05-07T07:33:15.696Z,48.50
2019-05-07T07:35:47.186Z,48.70
2019-05-07T07:38:33.330Z,49.20
2019-05-07T07:41:28.994Z,49.60
2019-05-07T07:44:02.088Z,50.10
2019-05-07T07:46:33.728Z,50.70
2019-05-07T07:49:10.970Z,50.10
2019-05-07T07:51:42.187Z,47.80
2019-05-07T07:54:13.120Z,47.90
2019-05-07T07:56:56.520Z,46.00
2019-05-07T07:59:52.924Z,45.20
2019-05-07T08:02:32.182Z,45.90
2019-05-07T08:05:03.991Z,45.70
2019-05-07T08:07:35.158Z,44.70
2019-05-07T08:10:07.019Z,44.40
2019-05-07T08:12:37.411Z,44.40
2019-05-07T08:15:17.260Z,44.60
2019-05-07T08:17:43.275Z,43.80
2019-05-07T08:20:15.048Z,42.90
2019-05-07T08:22:45.145Z,41.50
2019-05-07T08:25:16.647Z,42.00
2019-05-07T08:27:47.817Z,41.80
2019-05-07T08:30:22.711Z,42.30
2019-05-07T08:33:02.184Z,42.60
2019-05-07T08:35:58.490Z,43.40
2019-05-07T08:38:32.754Z,43.00
2019-05-07T08:41:04.013Z,42.90
2019-05-07T08:43:35.533Z,42.80
2019-05-07T08:46:26.724Z,44.10
2019-05-07T08:48:58.250Z,43.30
2019-05-07T08:51:29.447Z,42.90
2019-05-07T08:54:06.633Z,44.80
2019-05-07T08:56:38.618Z,45.80
2019-05-07T08:59:12.239Z,46.50
2019-05-07T09:01:43.540Z,46.90
2019-05-07T09:04:15.073Z,47.60
2019-05-07T09:06:46.223Z,47.60
2019-05-07T09:09:17.808Z,47.40
2019-05-07T09:11:49.360Z,47.70
2019-05-07T09:14:23.497Z,47.70
2019-05-07T09:16:52.871Z,47.90
2019-05-07T09:19:24.459Z,47.70
2019-05-07T09:21:56.306Z,48.00
2019-05-07T09:24:26.766Z,47.40
2019-05-07T09:27:17.041Z,47.40
2019-05-07T09:30:13.015Z,47.30
2019-05-07T09:33:02.343Z,47.90
2019-05-07T09:35:53.515Z,47.00
2019-05-07T09:38:24.725Z,47.70
2019-05-07T09:40:57.117Z,47.30
2019-05-07T09:43:28.780Z,46.90
2019-05-07T09:46:02.489Z,47.50
2019-05-07T09:48:33.844Z,47.80
2019-05-07T09:51:05.175Z,48.30
2019-05-07T09:53:37.011Z,47.60
2019-05-07T09:56:07.117Z,47.50
2019-05-07T09:58:39.301Z,47.80
2019-05-07T10:01:12.632Z,46.40
2019-05-07T10:03:44.273Z,47.00
2019-05-07T10:06:15.453Z,45.60
2019-05-07T10:08:47.174Z,46.60
2019-05-07T10:11:29.579Z,47.30
2019-05-07T10:14:05.069Z,47.50
2019-05-07T10:16:58.137Z,47.70
2019-05-07T10:19:29.880Z,48.20
2019-05-07T10:22:02.335Z,47.60
2019-05-07T10:24:33.910Z,47.30
2019-05-07T10:27:07.260Z,47.40
2019-05-07T10:29:38.627Z,46.20
2019-05-07T10:32:12.631Z,47.60
2019-05-07T10:34:43.661Z,47.30
2019-05-07T10:37:15.213Z,47.30
2019-05-07T10:39:47.126Z,47.30
2019-05-07T10:42:18.662Z,47.30
2019-05-07T10:45:03.029Z,47.20
2019-05-07T10:47:52.100Z,46.80
2019-05-07T10:50:35.260Z,47.50
2019-05-07T10:52:58.919Z,47.30
2019-05-07T10:55:30.109Z,46.60
2019-05-07T10:58:03.009Z,46.70
2019-05-07T11:00:35.561Z,46.60
2019-05-07T11:03:07.483Z,47.20
2019-05-07T11:05:39.180Z,47.40
2019-05-07T11:08:11.173Z,45.60
2019-05-07T11:10:42.442Z,46.70
2019-05-07T11:13:14.003Z,47.30
2019-05-07T11:15:48.224Z,47.70
2019-05-07T11:18:25.319Z,47.80
2019-05-07T11:20:56.822Z,48.10
2019-05-07T11:23:28.836Z,48.20
2019-05-07T11:26:02.385Z,47.60
2019-05-07T11:28:33.885Z,48.20
2019-05-07T11:31:06.726Z,48.50
2019-05-07T11:33:37.198Z,48.60
2019-05-07T11:36:08.302Z,48.20
2019-05-07T11:38:41.819Z,46.40
2019-05-07T11:41:12.851Z,47.50
2019-05-07T11:44:01.759Z,47.30
2019-05-07T11:46:44.557Z,46.60
2019-05-07T11:49:22.731Z,47.00
2019-05-07T11:51:59.152Z,47.40
2019-05-07T11:54:31.811Z,47.90
2019-05-07T11:57:03.444Z,48.00
2019-05-07T11:59:34.680Z,47.90
2019-05-07T12:02:06.770Z,48.30
2019-05-07T12:04:38.253Z,48.40
2019-05-07T12:07:11.762Z,48.50
2019-05-07T12:09:42.749Z,48.50
2019-05-07T12:12:14.352Z,48.80
2019-05-07T12:14:45.874Z,48.80
2019-05-07T12:17:17.425Z,48.90
2019-05-07T12:19:48.983Z,49.10
2019-05-07T12:22:46.674Z,49.10
2019-05-07T12:25:18.851Z,49.10
2019-05-07T12:27:52.235Z,49.40
2019-05-07T12:30:43.347Z,49.10
2019-05-07T12:33:21.190Z,49.40
2019-05-07T12:35:52.490Z,49.40
2019-05-07T12:38:23.815Z,49.40
2019-05-07T12:40:55.013Z,49.50
2019-05-07T12:43:26.523Z,49.20
2019-05-07T12:45:57.774Z,49.40
2019-05-07T12:48:29.258Z,49.50
2019-05-07T12:51:01.028Z,49.70
2019-05-07T12:53:42.496Z,49.30
2019-05-07T12:56:14.130Z,49.50
2019-05-07T12:58:46.067Z,49.70
2019-05-07T13:01:30.192Z,49.60
2019-05-07T13:04:13.608Z,49.50
2019-05-07T13:07:11.565Z,49.60
2019-05-07T13:09:42.873Z,49.50
2019-05-07T13:12:14.108Z,48.90
2019-05-07T13:14:45.301Z,49.10
2019-05-07T13:17:16.552Z,48.90
2019-05-07T13:19:48.342Z,49.10
2019-05-07T13:22:19.183Z,49.10
2019-05-07T13:24:52.745Z,49.30
2019-05-07T13:27:23.839Z,49.40
2019-05-07T13:29:55.766Z,49.60
2019-05-07T13:32:31.896Z,49.60
2019-05-07T13:35:04.089Z,49.40
2019-05-07T13:37:37.940Z,49.50
2019-05-07T13:40:25.276Z,49.00
2019-05-07T13:43:05.744Z,48.90
2019-05-07T13:45:44.407Z,49.30
2019-05-07T13:48:18.209Z,49.10
2019-05-07T13:50:50.453Z,49.00
2019-05-07T13:53:22.861Z,49.00
2019-05-07T13:55:54.690Z,49.10
2019-05-07T13:58:26.470Z,49.00
2019-05-07T14:01:05.486Z,48.80
2019-05-07T14:03:36.743Z,49.00
2019-05-07T14:06:08.775Z,48.80
2019-05-07T14:08:42.651Z,49.10
2019-05-07T14:11:14.161Z,49.00
2019-05-07T14:13:46.581Z,49.10
2019-05-07T14:16:18.127Z,49.10
2019-05-07T14:18:49.431Z,48.80
2019-05-07T14:21:21.939Z,48.70
2019-05-07T14:23:53.251Z,48.90
2019-05-07T14:26:24.602Z,49.00
2019-05-07T14:28:55.773Z,48.70
2019-05-07T14:31:27.835Z,48.90
2019-05-07T14:34:04.399Z,48.70
2019-05-07T14:36:54.971Z,48.80
2019-05-07T14:39:26.203Z,48.60
2019-05-07T14:41:59.395Z,48.80
2019-05-07T14:44:48.400Z,48.70
2019-05-07T14:47:22.260Z,49.00
2019-05-07T14:49:53.597Z,48.80
2019-05-07T14:52:32.630Z,48.90
2019-05-07T14:54:58.431Z,49.00
2019-05-07T14:57:30.211Z,49.10
2019-05-07T15:00:03.041Z,48.80
2019-05-07T15:02:34.547Z,49.10
2019-05-07T15:05:06.375Z,48.90
2019-05-07T15:07:36.789Z,49.20
2019-05-07T15:10:08.198Z,49.40
2019-05-07T15:12:39.819Z,49.20
2019-05-07T15:15:12.692Z,49.40
2019-05-07T15:18:15.919Z,49.40
2019-05-07T15:20:47.546Z,49.40
2019-05-07T15:23:26.395Z,49.20
2019-05-07T15:26:01.861Z,49.10
2019-05-07T15:28:32.288Z,49.10
2019-05-07T15:31:23.174Z,48.50
2019-05-07T15:33:54.810Z,49.00
2019-05-07T15:36:26.618Z,49.10
2019-05-07T15:38:57.950Z,49.10
2019-05-07T15:41:29.429Z,48.80
2019-05-07T15:44:02.725Z,48.90
2019-05-07T15:46:34.550Z,49.00
2019-05-07T15:49:06.069Z,48.90
2019-05-07T15:51:37.345Z,48.80
2019-05-07T15:54:08.558Z,49.00
2019-05-07T15:56:39.792Z,49.10
2019-05-07T15:59:14.163Z,48.60
2019-05-07T16:01:46.034Z,48.70
2019-05-07T16:04:22.393Z,48.60
2019-05-07T16:06:49.341Z,48.90
2019-05-07T16:09:22.120Z,48.90
2019-05-07T16:11:53.758Z,48.80
2019-05-07T16:14:26.933Z,48.80
2019-05-07T16:17:06.539Z,48.90
2019-05-07T16:19:38.232Z,48.80
2019-05-07T16:22:13.721Z,48.60
2019-05-07T16:24:45.402Z,48.80
2019-05-07T16:27:16.572Z,48.80
2019-05-07T16:29:47.879Z,49.00
2019-05-07T16:32:19.129Z,48.90
2019-05-07T16:34:52.649Z,48.60
2019-05-07T16:37:24.471Z,48.90
2019-05-07T16:39:55.660Z,48.60
2019-05-07T16:42:28.351Z,48.60
2019-05-07T16:45:02.748Z,48.40
2019-05-07T16:47:33.597Z,48.60
2019-05-07T16:50:05.462Z,48.60
2019-05-07T16:52:35.594Z,48.80
2019-05-07T16:55:07.087Z,48.80
2019-05-07T16:57:55.671Z,48.90
2019-05-07T17:00:34.391Z,48.80
2019-05-07T17:03:08.176Z,48.50
2019-05-07T17:05:39.352Z,48.40
2019-05-07T17:08:27.875Z,48.10
2019-05-07T17:10:59.242Z,48.60
2019-05-07T17:13:31.936Z,48.50
2019-05-07T17:16:03.578Z,48.70
2019-05-07T17:18:35.006Z,48.40
2019-05-07T17:21:06.274Z,48.50
2019-05-07T17:23:44.229Z,48.40
2019-05-07T17:26:11.959Z,48.70
2019-05-07T17:28:43.674Z,48.60
2019-05-07T17:31:15.197Z,48.50
2019-05-07T17:33:46.520Z,48.50
2019-05-07T17:36:17.745Z,48.30
2019-05-07T17:38:51.848Z,48.30
2019-05-07T17:41:27.072Z,48.90
2019-05-07T17:43:57.413Z,48.40
2019-05-07T17:46:28.861Z,48.50
2019-05-07T17:49:02.447Z,48.50
2019-05-07T17:51:43.552Z,48.70
2019-05-07T17:54:15.092Z,48.40
2019-05-07T17:56:46.780Z,48.50
2019-05-07T17:59:18.324Z,48.60
2019-05-07T18:02:07.138Z,48.60
2019-05-07T18:04:48.495Z,48.70
2019-05-07T18:07:14.272Z,48.90
2019-05-07T18:09:45.510Z,48.60
2019-05-07T18:12:16.832Z,48.20
2019-05-07T18:14:48.086Z,48.50
2019-05-07T18:17:37.043Z,48.50
2019-05-07T18:20:12.713Z,48.20
2019-05-07T18:22:43.715Z,48.60
2019-05-07T18:25:15.632Z,48.30
2019-05-07T18:27:47.231Z,48.30
2019-05-07T18:30:18.470Z,48.50
2019-05-07T18:32:55.118Z,48.80
2019-05-07T18:35:26.392Z,48.80
2019-05-07T18:37:58.256Z,48.90
2019-05-07T18:40:28.390Z,49.00
2019-05-07T18:42:59.883Z,49.10
2019-05-07T18:45:31.429Z,49.10
2019-05-07T18:48:02.610Z,49.00
2019-05-07T18:50:34.176Z,49.30
2019-05-07T18:53:05.739Z,49.40
2019-05-07T18:55:37.116Z,49.70
2019-05-07T18:58:08.707Z,49.50
2019-05-07T19:00:43.800Z,50.20
2019-05-07T19:03:25.514Z,49.50
2019-05-07T19:05:57.895Z,49.60
2019-05-07T19:08:29.543Z,49.40
2019-05-07T19:11:01.079Z,49.70
2019-05-07T19:13:32.750Z,49.40
2019-05-07T19:16:06.553Z,49.50
2019-05-07T19:18:38.331Z,49.30
2019-05-07T19:21:08.571Z,49.70
2019-05-07T19:23:42.202Z,49.40
2019-05-07T19:26:13.575Z,49.70
2019-05-07T19:28:45.151Z,49.70
2019-05-07T19:31:16.766Z,49.90
2019-05-07T19:33:48.365Z,49.70
2019-05-07T19:36:22.208Z,50.30
2019-05-07T19:38:53.309Z,50.10
2019-05-07T19:41:25.286Z,50.20
2019-05-07T19:43:56.488Z,50.20
2019-05-07T19:46:28.014Z,50.20
2019-05-07T19:48:59.219Z,50.20
2019-05-07T19:51:32.059Z,50.20
2019-05-07T19:54:04.118Z,50.20
2019-05-07T19:56:36.658Z,50.30
2019-05-07T19:59:07.900Z,50.40
2019-05-07T20:01:44.189Z,50.10
2019-05-07T20:04:15.862Z,50.50
2019-05-07T20:06:47.318Z,50.30
2019-05-07T20:09:20.914Z,50.40
2019-05-07T20:11:52.459Z,50.40
2019-05-07T20:14:23.781Z,50.90
2019-05-07T20:16:55.419Z,50.50
2019-05-07T20:19:26.776Z,50.40
2019-05-07T20:21:58.047Z,50.50
2019-05-07T20:24:29.397Z,50.60
2019-05-07T20:27:02.959Z,50.90
2019-05-07T20:29:34.407Z,50.40
2019-05-07T20:32:05.991Z,50.50
2019-05-07T20:34:37.804Z,50.60
2019-05-07T20:37:09.741Z,50.60
2019-05-07T20:39:42.677Z,50.50
2019-05-07T20:42:14.405Z,50.80
2019-05-07T20:44:45.677Z,51.00
2019-05-07T20:47:16.926Z,50.70
2019-05-07T20:49:48.584Z,50.60
2019-05-07T20:52:22.789Z,50.70
2019-05-07T20:55:33.766Z,49.70
2019-05-07T20:58:03.733Z,50.00
2019-05-07T21:00:37.067Z,50.30
2019-05-07T21:03:20.617Z,50.60
2019-05-07T21:05:53.362Z,50.80
2019-05-07T21:08:24.777Z,51.00
2019-05-07T21:10:56.364Z,51.10
2019-05-07T21:13:31.666Z,51.00
2019-05-07T21:16:02.699Z,50.80
2019-05-07T21:18:34.489Z,50.30
2019-05-07T21:21:06.207Z,49.90
2019-05-07T21:23:36.713Z,49.80
2019-05-07T21:26:07.738Z,50.00
2019-05-07T21:28:39.514Z,49.70
2019-05-07T21:31:11.819Z,49.60
2019-05-07T21:33:43.023Z,49.90
2019-05-07T21:36:13.525Z,50.10
2019-05-07T21:38:45.374Z,50.10
2019-05-07T21:41:16.915Z,50.10
2019-05-07T21:43:48.487Z,50.20
2019-05-07T21:46:22.010Z,50.20
2019-05-07T21:48:53.747Z,50.20
2019-05-07T21:51:25.415Z,50.10
2019-05-07T21:54:13.552Z,50.00
2019-05-07T21:57:05.241Z,50.20
2019-05-07T21:59:37.103Z,50.30
2019-05-07T22:02:13.398Z,50.60
2019-05-07T22:04:45.075Z,50.80
2019-05-07T22:07:15.476Z,50.90
2019-05-07T22:09:46.594Z,50.90
2019-05-07T22:12:18.101Z,51.20
2019-05-07T22:14:49.435Z,51.30
2019-05-07T22:17:21.943Z,51.10
2019-05-07T22:19:54.294Z,51.00
2019-05-07T22:22:25.614Z,51.10
2019-05-07T22:24:57.058Z,50.90
2019-05-07T22:27:30.147Z,50.80
2019-05-07T22:30:02.250Z,50.80
2019-05-07T22:32:49.876Z,51.10
2019-05-07T22:35:24.810Z,50.80
2019-05-07T22:38:00.605Z,50.80
2019-05-07T22:40:34.002Z,50.80
2019-05-07T22:43:07.158Z,51.00
2019-05-07T22:45:38.762Z,51.10
2019-05-07T22:48:12.035Z,51.30
2019-05-07T22:50:44.087Z,51.40
2019-05-07T22:53:15.666Z,51.60
2019-05-07T22:55:47.225Z,51.50
2019-05-07T22:58:32.634Z,51.40
2019-05-07T23:01:06.813Z,51.60
2019-05-07T23:03:38.520Z,51.80
2019-05-07T23:06:12.123Z,51.60
2019-05-07T23:08:42.949Z,51.80
2019-05-07T23:11:14.474Z,51.90
2019-05-07T23:13:46.373Z,52.20
2019-05-07T23:16:17.580Z,52.40
2019-05-07T23:18:49.167Z,52.60
2019-05-07T23:21:24.373Z,52.70
2019-05-07T23:23:53.836Z,52.70
2019-05-07T23:26:23.959Z,52.70
2019-05-07T23:28:54.940Z,52.90
2019-05-07T23:31:26.113Z,53.00
2019-05-07T23:33:57.606Z,52.90
2019-05-07T23:36:29.119Z,53.00
2019-05-07T23:39:02.614Z,52.90
2019-05-07T23:41:44.390Z,52.70
2019-05-07T23:44:19.952Z,52.60
2019-05-07T23:46:52.042Z,52.50
2019-05-07T23:49:24.109Z,52.30
2019-05-07T23:51:55.990Z,52.20
2019-05-07T23:54:27.239Z,52.30
2019-05-07T23:57:05.888Z,52.40
2019-05-07T23:59:32.968Z,52.60
